createdAt,value
2019-04-21T00:00:37.908Z,6.62
2019-04-21T00:03:20.114Z,7.15
2019-04-21T00:06:05.310Z,7.65
2019-04-21T00:08:36.332Z,6.58
2019-04-21T00:11:09.304Z,7.08
2019-04-21T00:13:32.915Z,6.70
2019-04-21T00:16:02.481Z,7.05
2019-04-21T00:18:48.523Z,6.33
2019-04-21T00:21:23.231Z,6.97
2019-04-21T00:24:21.537Z,6.78
2019-04-21T00:27:03.777Z,7.28
2019-04-21T00:29:41.003Z,6.67
2019-04-21T00:32:06.913Z,6.33
2019-04-21T00:34:23.754Z,6.95
2019-04-21T00:37:08.283Z,6.70
2019-04-21T00:39:58.884Z,6.75
2019-04-21T00:42:19.952Z,6.20
2019-04-21T00:44:52.409Z,6.87
2019-04-21T00:47:31.749Z,6.62
2019-04-21T00:50:08.054Z,5.92
2019-04-21T00:53:10.449Z,6.70
2019-04-21T00:55:45.553Z,6.20
2019-04-21T00:58:19.441Z,6.08
2019-04-21T01:00:47.562Z,6.25
2019-04-21T01:03:21.703Z,6.30
2019-04-21T01:05:56.094Z,6.25
2019-04-21T01:08:21.953Z,6.37
2019-04-21T01:10:49.947Z,5.85
2019-04-21T01:13:32.097Z,6.45
2019-04-21T01:16:10.190Z,6.50
2019-04-21T01:18:33.184Z,5.90
2019-04-21T01:20:48.381Z,6.60
2019-04-21T01:23:19.645Z,6.40
2019-04-21T01:26:09.445Z,6.90
2019-04-21T01:28:41.358Z,6.08
2019-04-21T01:31:13.696Z,6.58
2019-04-21T01:33:50.824Z,6.53
2019-04-21T01:36:18.002Z,6.85
2019-04-21T01:39:02.173Z,6.83
2019-04-21T01:41:31.465Z,6.62
2019-04-21T01:44:02.117Z,6.55
2019-04-21T01:46:29.891Z,6.75
2019-04-21T01:49:01.520Z,6.45
2019-04-21T01:51:45.294Z,6.70
2019-04-21T01:54:35.507Z,6.47
2019-04-21T01:57:09.935Z,6.67
2019-04-21T01:59:35.254Z,6.58
2019-04-21T02:02:19.368Z,6.37
2019-04-21T02:04:55.786Z,6.30
2019-04-21T02:07:23.244Z,6.28
2019-04-21T02:10:03.388Z,6.25
2019-04-21T02:12:34.579Z,6.78
2019-04-21T02:15:04.841Z,6.55
2019-04-21T02:17:35.538Z,6.08
2019-04-21T02:20:05.406Z,6.33
2019-04-21T02:22:57.458Z,6.20
2019-04-21T02:25:23.099Z,7.00
2019-04-21T02:27:49.753Z,6.58
2019-04-21T02:30:35.611Z,6.85
2019-04-21T02:40:46.468Z,6.78
2019-04-21T02:43:22.888Z,6.62
2019-04-21T02:45:55.935Z,6.40
2019-04-21T02:48:34.997Z,7.03
2019-04-21T02:50:49.961Z,6.72
2019-04-21T02:59:06.758Z,6.17
2019-04-21T03:02:10.535Z,6.55
2019-04-21T03:04:46.682Z,7.35
2019-04-21T03:07:27.020Z,6.87
2019-04-21T03:15:15.963Z,6.80
2019-04-21T03:22:42.152Z,6.05
2019-04-21T03:28:04.880Z,6.65
2019-04-21T03:30:53.111Z,7.50
2019-04-21T03:33:23.620Z,6.15
2019-04-21T03:38:13.093Z,6.80
2019-04-21T03:40:32.376Z,6.40
2019-04-21T03:43:12.523Z,7.03
2019-04-21T03:45:46.272Z,7.28
2019-04-21T03:48:24.171Z,6.62
2019-04-21T03:50:49.136Z,6.87
2019-04-21T03:53:24.810Z,7.50
2019-04-21T03:58:46.402Z,6.87
2019-04-21T04:04:06.343Z,7.40
2019-04-21T04:09:37.593Z,7.22
2019-04-21T04:11:58.355Z,7.42
2019-04-21T04:14:40.057Z,7.45
2019-04-21T04:17:13.648Z,8.28
2019-04-21T04:19:42.214Z,7.42
2019-04-21T04:22:15.010Z,7.22
2019-04-21T04:24:49.346Z,6.78
2019-04-21T04:27:35.214Z,6.80
2019-04-21T04:29:50.310Z,7.17
2019-04-21T04:32:25.199Z,6.67
2019-04-21T04:35:05.143Z,7.35
2019-04-21T04:37:32.077Z,7.12
2019-04-21T04:43:23.301Z,8.20
2019-04-21T04:48:11.460Z,7.40
2019-04-21T04:56:01.773Z,7.70
2019-04-21T04:58:44.103Z,7.70
2019-04-21T05:01:16.832Z,7.95
2019-04-21T05:06:42.455Z,7.50
2019-04-21T05:09:09.406Z,7.55
2019-04-21T05:14:21.825Z,6.97
2019-04-21T05:19:16.104Z,7.55
2019-04-21T05:22:05.272Z,7.75
2019-04-21T05:24:13.687Z,7.05
2019-04-21T05:26:43.337Z,7.58
2019-04-21T05:29:15.862Z,7.08
2019-04-21T05:34:42.651Z,7.42
2019-04-21T05:37:28.618Z,8.20
2019-04-21T05:40:12.257Z,7.58
2019-04-21T05:42:40.003Z,7.55
2019-04-21T05:45:25.458Z,7.45
2019-04-21T05:48:21.075Z,7.65
2019-04-21T05:50:46.587Z,7.10
2019-04-21T05:53:26.884Z,7.30
2019-04-21T05:58:27.104Z,7.60
2019-04-21T06:01:22.157Z,8.33
2019-04-21T06:06:20.287Z,7.20
2019-04-21T06:08:46.913Z,7.55
2019-04-21T06:11:21.053Z,7.60
2019-04-21T06:13:55.193Z,7.28
2019-04-21T06:16:34.226Z,7.42
2019-04-21T06:18:58.745Z,7.60
2019-04-21T06:21:28.185Z,7.20
2019-04-21T06:24:03.879Z,7.83
2019-04-21T06:27:14.821Z,7.50
2019-04-21T06:29:11.602Z,7.30
2019-04-21T06:32:14.202Z,7.30
2019-04-21T06:34:16.571Z,7.22
2019-04-21T06:36:57.081Z,7.28
2019-04-21T06:39:40.378Z,7.00
2019-04-21T06:42:07.725Z,6.83
2019-04-21T06:44:38.894Z,7.22
2019-04-21T06:47:16.291Z,6.92
2019-04-21T06:49:47.391Z,7.47
2019-04-21T06:52:44.751Z,7.20
2019-04-21T06:54:57.171Z,7.47
2019-04-21T06:57:29.230Z,7.45
2019-04-21T06:59:55.606Z,7.80
2019-04-21T07:05:24.687Z,7.83
2019-04-21T07:07:35.297Z,8.83
2019-04-21T07:10:11.759Z,8.28
2019-04-21T07:12:39.364Z,8.10
2019-04-21T07:15:17.988Z,7.90
2019-04-21T07:17:53.630Z,8.40
2019-04-21T07:20:21.821Z,7.20
2019-04-21T07:22:57.001Z,7.97
2019-04-21T07:25:32.644Z,8.10
2019-04-21T07:28:18.814Z,8.25
2019-04-21T07:30:41.140Z,8.45
2019-04-21T07:35:45.780Z,8.20
2019-04-21T07:38:11.874Z,9.00
2019-04-21T07:40:42.639Z,8.23
2019-04-21T07:43:17.638Z,7.72
2019-04-21T07:45:49.817Z,8.55
2019-04-21T07:48:43.274Z,8.13
2019-04-21T07:51:38.995Z,8.05
2019-04-21T07:54:17.199Z,8.00
2019-04-21T07:56:32.456Z,8.05
2019-04-21T07:59:23.917Z,7.78
2019-04-21T08:01:50.729Z,7.75
2019-04-21T08:06:55.430Z,8.15
2019-04-21T08:09:37.180Z,8.23
2019-04-21T08:11:57.413Z,8.03
2019-04-21T08:14:35.644Z,8.00
2019-04-21T08:17:10.996Z,7.45
2019-04-21T08:19:42.999Z,8.05
2019-04-21T08:22:18.584Z,8.75
2019-04-21T08:24:51.948Z,8.13
2019-04-21T08:27:27.800Z,7.75
2019-04-21T08:29:58.310Z,7.28
2019-04-21T08:32:36.453Z,8.23
2019-04-21T08:35:24.815Z,8.55
2019-04-21T08:37:31.305Z,7.37
2019-04-21T08:40:09.631Z,7.58
2019-04-21T08:42:39.987Z,7.03
2019-04-21T08:45:14.935Z,7.22
2019-04-21T08:50:22.576Z,5.87
2019-04-21T08:52:58.291Z,6.47
2019-04-21T08:56:07.567Z,6.78
2019-04-21T08:59:00.747Z,6.30
2019-04-21T09:04:07.561Z,7.15
2019-04-21T09:06:57.229Z,5.97
2019-04-21T09:11:49.945Z,6.30
2019-04-21T09:14:18.899Z,6.60
2019-04-21T09:16:49.105Z,6.40
2019-04-21T09:19:33.949Z,6.47
2019-04-21T09:22:12.858Z,5.92
2019-04-21T09:24:31.516Z,5.40
2019-04-21T09:27:03.762Z,5.25
2019-04-21T09:29:28.329Z,5.60
2019-04-21T09:31:54.459Z,5.30
2019-04-21T09:34:32.615Z,5.20
2019-04-21T09:37:13.901Z,5.00
2019-04-21T09:39:33.212Z,5.62
2019-04-21T09:42:05.091Z,5.60
2019-04-21T09:44:40.108Z,5.35
2019-04-21T09:47:11.030Z,5.47
2019-04-21T09:49:43.291Z,5.85
2019-04-21T09:52:20.924Z,5.05
2019-04-21T09:54:56.468Z,5.33
2019-04-21T09:57:32.735Z,5.67
2019-04-21T10:00:00.916Z,5.87
2019-04-21T10:02:36.541Z,5.85
2019-04-21T10:05:01.822Z,5.58
2019-04-21T10:07:39.110Z,5.20
2019-04-21T10:10:10.538Z,5.60
2019-04-21T10:12:43.402Z,5.62
2019-04-21T10:15:14.781Z,5.30
2019-04-21T10:17:52.172Z,6.05
2019-04-21T10:20:24.494Z,5.20
2019-04-21T10:22:57.324Z,5.70
2019-04-21T10:25:28.822Z,5.70
2019-04-21T10:28:01.448Z,5.75
2019-04-21T10:30:33.253Z,6.37
2019-04-21T10:33:06.048Z,6.03
2019-04-21T10:35:39.380Z,7.03
2019-04-21T10:38:24.014Z,6.15
2019-04-21T10:40:45.234Z,6.10
2019-04-21T10:43:21.681Z,6.15
2019-04-21T10:45:50.721Z,6.22
2019-04-21T10:48:23.103Z,5.60
2019-04-21T10:50:57.003Z,5.35
2019-04-21T10:53:31.194Z,5.45
2019-04-21T10:56:12.189Z,5.67
2019-04-21T10:58:38.442Z,5.72
2019-04-21T11:01:15.190Z,6.80
2019-04-21T11:04:19.792Z,6.25
2019-04-21T11:06:42.266Z,5.72
2019-04-21T11:09:14.114Z,5.45
2019-04-21T11:11:48.103Z,6.05
2019-04-21T11:14:18.369Z,5.95
2019-04-21T11:16:52.862Z,6.85
2019-04-21T11:19:24.167Z,5.83
2019-04-21T11:21:56.888Z,6.28
2019-04-21T11:24:29.318Z,6.20
2019-04-21T11:27:01.803Z,5.95
2019-04-21T11:29:35.092Z,6.58
2019-04-21T11:32:07.163Z,5.83
2019-04-21T11:34:38.982Z,5.72
2019-04-21T11:37:12.455Z,5.97
2019-04-21T11:39:51.956Z,7.20
2019-04-21T11:42:23.698Z,7.58
2019-04-21T11:44:55.398Z,6.58
2019-04-21T11:47:32.355Z,6.72
2019-04-21T11:50:05.031Z,6.72
2019-04-21T11:52:36.957Z,6.50
2019-04-21T11:55:08.962Z,6.75
2019-04-21T11:57:44.919Z,6.58
2019-04-21T12:00:15.588Z,6.35
2019-04-21T12:02:47.750Z,6.40
2019-04-21T12:05:19.376Z,6.67
2019-04-21T12:07:51.313Z,6.53
2019-04-21T12:10:23.773Z,7.28
2019-04-21T12:12:55.428Z,6.85
2019-04-21T12:15:27.083Z,7.00
2019-04-21T12:17:59.558Z,6.80
2019-04-21T12:20:31.281Z,6.10
2019-04-21T12:23:02.933Z,8.03
2019-04-21T12:25:38.991Z,7.10
2019-04-21T12:28:10.407Z,7.05
2019-04-21T12:30:42.451Z,6.42
2019-04-21T12:33:32.147Z,6.70
2019-04-21T12:36:03.978Z,6.78
2019-04-21T12:38:44.672Z,6.80
2019-04-21T12:41:09.049Z,7.30
2019-04-21T12:43:40.271Z,7.60
2019-04-21T12:46:11.986Z,7.00
2019-04-21T12:48:44.239Z,7.60
2019-04-21T12:51:17.618Z,7.47
2019-04-21T12:53:49.866Z,6.72
2019-04-21T12:56:21.218Z,6.92
2019-04-21T12:58:53.283Z,6.03
2019-04-21T13:01:25.078Z,6.50
2019-04-21T13:03:57.492Z,6.17
2019-04-21T13:06:30.068Z,6.33
2019-04-21T13:09:05.259Z,6.35
2019-04-21T13:11:35.353Z,6.25
2019-04-21T13:14:08.248Z,6.25
2019-04-21T13:16:39.719Z,6.10
2019-04-21T13:19:11.577Z,6.70
2019-04-21T13:21:43.032Z,5.92
2019-04-21T13:24:15.820Z,6.35
2019-04-21T13:26:55.649Z,6.15
2019-04-21T13:29:21.522Z,6.75
2019-04-21T13:31:54.156Z,6.25
2019-04-21T13:34:26.295Z,6.15
2019-04-21T13:36:57.628Z,6.03
2019-04-21T13:40:28.134Z,6.20
2019-04-21T13:42:45.369Z,6.28
2019-04-21T13:45:14.038Z,6.37
2019-04-21T13:47:46.270Z,5.97
2019-04-21T13:50:17.674Z,6.20
2019-04-21T13:52:49.009Z,5.83
2019-04-21T13:55:21.346Z,6.37
2019-04-21T13:57:52.804Z,5.95
2019-04-21T14:00:24.192Z,5.78
2019-04-21T14:02:56.432Z,6.00
2019-04-21T14:05:28.659Z,5.72
2019-04-21T14:08:01.111Z,5.83
2019-04-21T14:10:33.509Z,5.83
2019-04-21T14:13:04.847Z,6.20
2019-04-21T14:15:36.091Z,5.60
2019-04-21T14:18:08.750Z,6.08
2019-04-21T14:20:40.114Z,5.97
2019-04-21T14:23:22.426Z,5.95
2019-04-21T14:25:45.726Z,5.70
2019-04-21T14:28:17.836Z,5.65
2019-04-21T14:30:50.480Z,6.12
2019-04-21T14:33:23.483Z,6.05
2019-04-21T14:35:55.022Z,5.15
2019-04-21T14:38:26.773Z,5.85
2019-04-21T14:40:58.154Z,5.90
2019-04-21T14:43:30.064Z,5.70
2019-04-21T14:46:06.461Z,4.90
2019-04-21T14:48:57.106Z,5.10
2019-04-21T14:51:43.215Z,5.47
2019-04-21T14:54:33.125Z,5.15
2019-04-21T14:57:05.234Z,5.95
2019-04-21T14:59:39.184Z,5.35
2019-04-21T15:02:11.745Z,6.00
2019-04-21T15:04:43.938Z,5.10
2019-04-21T15:07:15.329Z,5.28
2019-04-21T15:09:46.530Z,5.20
2019-04-21T15:12:18.247Z,5.65
2019-04-21T15:14:49.934Z,5.08
2019-04-21T15:17:23.006Z,4.62
2019-04-21T15:19:59.644Z,5.08
2019-04-21T15:22:28.346Z,4.70
2019-04-21T15:25:00.596Z,5.50
2019-04-21T15:27:32.972Z,4.90
2019-04-21T15:30:04.886Z,4.62
2019-04-21T15:32:37.200Z,4.55
2019-04-21T15:35:09.236Z,4.72
2019-04-21T15:37:41.978Z,4.90
2019-04-21T15:40:21.842Z,4.22
2019-04-21T15:42:48.372Z,4.15
2019-04-21T15:45:21.005Z,4.42
2019-04-21T15:47:53.988Z,4.53
2019-04-21T15:50:26.525Z,4.35
2019-04-21T15:53:01.432Z,4.58
2019-04-21T15:55:57.555Z,4.37
2019-04-21T15:59:06.561Z,4.53
2019-04-21T16:01:58.786Z,4.67
2019-04-21T16:04:30.708Z,16.52
2019-04-21T16:07:01.995Z,6.58
2019-04-21T16:09:35.836Z,4.83
2019-04-21T16:12:09.705Z,5.55
2019-04-21T16:14:41.062Z,4.33
2019-04-21T16:17:12.371Z,4.08
2019-04-21T16:19:43.815Z,4.17
2019-04-21T16:22:16.682Z,4.17
2019-04-21T16:24:48.374Z,4.05
2019-04-21T16:27:21.297Z,4.83
2019-04-21T16:29:53.966Z,3.70
2019-04-21T16:32:26.025Z,3.77
2019-04-21T16:35:02.993Z,3.87
2019-04-21T16:37:31.791Z,3.83
2019-04-21T16:40:03.624Z,4.03
2019-04-21T16:42:36.245Z,3.75
2019-04-21T16:45:10.621Z,3.87
2019-04-21T16:47:42.591Z,3.80
2019-04-21T16:50:15.997Z,4.53
2019-04-21T16:52:52.235Z,4.75
2019-04-21T16:55:48.976Z,3.80
2019-04-21T16:58:36.732Z,3.72
2019-04-21T17:01:17.065Z,3.58
2019-04-21T17:03:48.568Z,3.20
2019-04-21T17:06:20.140Z,3.12
2019-04-21T17:08:52.676Z,3.50
2019-04-21T17:11:31.641Z,3.00
2019-04-21T17:14:03.582Z,3.45
2019-04-21T17:16:58.373Z,3.17
2019-04-21T17:19:14.696Z,3.17
2019-04-21T17:21:41.762Z,3.37
2019-04-21T17:24:14.479Z,3.15
2019-04-21T17:26:48.212Z,2.90
2019-04-21T17:29:20.885Z,2.83
2019-04-21T17:31:53.230Z,2.87
2019-04-21T17:34:28.119Z,3.30
2019-04-21T17:36:57.511Z,3.12
2019-04-21T17:39:29.133Z,2.98
2019-04-21T17:42:16.614Z,2.70
2019-04-21T17:44:33.422Z,2.70
2019-04-21T17:47:11.657Z,2.75
2019-04-21T17:49:39.285Z,3.00
2019-04-21T17:52:53.931Z,2.80
2019-04-21T17:55:27.698Z,2.60
2019-04-21T17:58:13.232Z,2.90
2019-04-21T18:03:39.263Z,2.75
2019-04-21T18:05:55.919Z,4.12
2019-04-21T18:08:30.549Z,3.52
2019-04-21T18:11:00.233Z,6.17
2019-04-21T18:13:24.502Z,5.40
2019-04-21T18:16:08.230Z,11.88
2019-04-21T18:18:28.625Z,6.37
2019-04-21T18:21:12.488Z,11.00
2019-04-21T18:23:57.382Z,6.58
2019-04-21T18:26:35.697Z,20.35
2019-04-21T18:29:00.715Z,17.55
2019-04-21T18:31:33.984Z,4.47
2019-04-21T18:34:24.457Z,7.35
2019-04-21T18:36:59.280Z,19.50
2019-04-21T18:39:49.815Z,23.40
2019-04-21T18:42:37.500Z,8.58
2019-04-21T18:45:57.111Z,5.80
2019-04-21T18:48:18.371Z,5.28
2019-04-21T18:51:04.801Z,5.85
2019-04-21T18:53:47.723Z,4.28
2019-04-21T18:56:11.257Z,3.20
2019-04-21T18:58:40.309Z,2.33
2019-04-21T19:01:19.277Z,3.17
2019-04-21T19:03:47.593Z,3.35
2019-04-21T19:06:25.530Z,3.12
2019-04-21T19:09:11.589Z,3.40
2019-04-21T19:11:42.939Z,3.30
2019-04-21T19:14:36.177Z,2.92
2019-04-21T19:22:04.624Z,4.15
2019-04-21T19:24:33.760Z,3.80
2019-04-21T19:27:11.988Z,3.90
2019-04-21T19:29:48.768Z,4.10
2019-04-21T19:32:16.536Z,3.62
2019-04-21T19:34:34.807Z,3.08
2019-04-21T19:37:10.838Z,2.98
2019-04-21T19:39:50.819Z,3.60
2019-04-21T19:42:19.376Z,3.12
2019-04-21T19:44:56.813Z,3.70
2019-04-21T19:47:33.113Z,4.00
2019-04-21T19:50:06.206Z,4.17
2019-04-21T19:52:34.302Z,3.83
2019-04-21T19:54:56.785Z,3.90
2019-04-21T19:57:29.162Z,3.58
2019-04-21T20:00:04.255Z,4.42
2019-04-21T20:02:34.379Z,3.75
2019-04-21T20:05:13.620Z,3.70
2019-04-21T20:08:00.087Z,3.55
2019-04-21T20:10:33.409Z,3.80
2019-04-21T20:13:07.710Z,3.40
2019-04-21T20:15:42.047Z,3.45
2019-04-21T20:18:07.188Z,3.67
2019-04-21T20:20:26.911Z,3.70
2019-04-21T20:22:59.388Z,3.67
2019-04-21T20:25:39.292Z,3.40
2019-04-21T20:28:14.699Z,3.95
2019-04-21T20:31:00.671Z,3.72
2019-04-21T20:33:48.690Z,3.87
2019-04-21T20:36:06.163Z,3.70
2019-04-21T20:38:28.287Z,5.03
2019-04-21T20:40:57.570Z,4.15
2019-04-21T20:43:42.747Z,4.60
2019-04-21T20:46:13.706Z,6.22
2019-04-21T20:48:46.498Z,6.15
2019-04-21T20:51:23.655Z,6.00
2019-04-21T20:53:47.778Z,6.15
2019-04-21T20:56:18.356Z,5.95
2019-04-21T20:58:59.989Z,5.75
2019-04-21T21:01:49.497Z,5.78
2019-04-21T21:04:01.660Z,5.58
2019-04-21T21:06:36.180Z,6.12
2019-04-21T21:09:10.147Z,5.65
2019-04-21T21:11:53.624Z,4.10
2019-04-21T21:14:18.641Z,3.90
2019-04-21T21:16:53.437Z,4.78
2019-04-21T21:19:33.218Z,5.85
2019-04-21T21:21:54.297Z,5.47
2019-04-21T21:24:36.384Z,5.50
2019-04-21T21:27:04.675Z,5.47
2019-04-21T21:29:33.331Z,6.10
2019-04-21T21:32:18.478Z,6.22
2019-04-21T21:34:47.846Z,6.35
2019-04-21T21:37:29.331Z,7.03
2019-04-21T21:39:58.345Z,7.87
2019-04-21T21:42:07.170Z,6.08
2019-04-21T21:44:40.710Z,5.50
2019-04-21T21:47:24.060Z,5.90
2019-04-21T21:49:55.457Z,6.20
2019-04-21T21:52:33.076Z,5.60
2019-04-21T21:54:51.887Z,6.10
2019-04-21T21:57:23.472Z,5.60
2019-04-21T21:59:59.741Z,5.00
2019-04-21T22:02:35.306Z,5.40
2019-04-21T22:05:07.611Z,4.87
2019-04-21T22:07:35.576Z,5.22
2019-04-21T22:10:08.499Z,6.08
2019-04-21T22:12:50.450Z,5.58
2019-04-21T22:15:18.572Z,5.47
2019-04-21T22:18:07.462Z,5.05
2019-04-21T22:20:40.112Z,5.33
2019-04-21T22:22:58.350Z,5.85
2019-04-21T22:25:29.877Z,5.37
2019-04-21T22:27:59.915Z,5.10
2019-04-21T22:30:38.533Z,5.08
2019-04-21T22:33:08.512Z,5.10
2019-04-21T22:35:44.246Z,5.53
2019-04-21T22:38:23.401Z,5.03
2019-04-21T22:40:55.226Z,4.80
2019-04-21T22:43:21.766Z,5.25
2019-04-21T22:45:49.603Z,4.95
2019-04-21T22:48:23.675Z,4.95
2019-04-21T22:50:54.226Z,4.72
2019-04-21T22:53:29.217Z,5.03
2019-04-21T22:56:04.361Z,5.10
2019-04-21T22:58:37.350Z,4.95
2019-04-21T23:01:07.754Z,4.80
2019-04-21T23:03:46.757Z,4.72
2019-04-21T23:06:19.622Z,4.67
2019-04-21T23:08:46.204Z,4.12
2019-04-21T23:11:19.666Z,4.53
2019-04-21T23:13:57.478Z,4.42
2019-04-21T23:16:31.092Z,4.62
2019-04-21T23:19:15.648Z,4.78
2019-04-21T23:21:55.449Z,4.95
2019-04-21T23:24:26.381Z,4.50
2019-04-21T23:26:48.809Z,4.95
2019-04-21T23:29:39.515Z,4.53
2019-04-21T23:31:59.281Z,5.08
2019-04-21T23:34:21.969Z,4.72
2019-04-21T23:36:57.650Z,5.15
2019-04-21T23:39:28.434Z,5.03
2019-04-21T23:41:55.960Z,4.90
2019-04-21T23:44:28.201Z,4.70
2019-04-21T23:47:03.430Z,4.72
2019-04-21T23:49:43.257Z,4.58
2019-04-21T23:52:10.115Z,4.53
2019-04-21T23:54:39.374Z,5.10
2019-04-21T23:57:16.375Z,4.65
2019-04-21T23:59:47.104Z,5.10
